Time;durP1;ratioP1;P1;durP2;ratioP2;P2;SDS_P1;SDS_P2;PMS_P1;PMS_P2;Temp;Humidity;BMP_temperature;BMP_pressure;BME280_temperature;BME280_humidity;BME280_pressure;Samples;Min_cycle;Max_cycle;Signal;HPM_P1;HPM_P2
2022/05/29 00:01:30;;;;;;;7.35;3.58;;;;;;;;;;5054859;28;20094;-29
2022/05/29 00:03:56;;;;;;;9.07;3.80;;;;;;;;;;5054960;28;20044;-30
2022/05/29 00:06:23;;;;;;;11.88;4.13;;;;;;;;;;5054472;28;20041;-30
2022/05/29 00:08:49;;;;;;;7.65;4.15;;;;;;;;;;5054323;28;20239;-30
2022/05/29 00:11:15;;;;;;;6.13;3.65;;;;;;;;;;5054273;28;20076;-30
2022/05/29 00:13:44;;;;;;;8.00;3.50;;;;;;;;;;5054476;28;20037;-30
2022/05/29 00:16:10;;;;;;;6.97;3.72;;;;;;;;;;5054237;28;20049;-30
2022/05/29 00:18:37;;;;;;;8.25;3.55;;;;;;;;;;5054413;28;20060;-30
2022/05/29 00:21:05;;;;;;;5.88;3.28;;;;;;;;;;5054309;28;20398;-31
2022/05/29 00:23:40;;;;;;;11.02;3.90;;;;;;;;;;5054316;28;20044;-30
2022/05/29 00:26:07;;;;;;;8.63;3.90;;;;;;;;;;5054467;28;20041;-29
2022/05/29 00:28:33;;;;;;;9.15;3.63;;;;;;;;;;5053894;28;20510;-30
2022/05/29 00:30:59;;;;;;;7.38;2.90;;;;;;;;;;5053643;28;20037;-30
2022/05/29 00:33:25;;;;;;;8.18;4.32;;;;;;;;;;5053937;28;20045;-30
2022/05/29 00:35:52;;;;;;;6.68;3.33;;;;;;;;;;5053717;28;20043;-31
2022/05/29 00:38:18;;;;;;;10.80;3.72;;;;;;;;;;5037844;28;20033;-32
2022/05/29 00:41:03;;;;;;;11.10;4.40;;;;;;;;;;5046826;28;20044;-34
2022/05/29 00:43:29;;;;;;;8.80;3.60;;;;;;;;;;5052219;28;20111;-33
2022/05/29 00:45:57;;;;;;;8.48;3.83;;;;;;;;;;5038594;28;20547;-31
2022/05/29 00:48:24;;;;;;;10.35;3.45;;;;;;;;;;5036512;28;20499;-32
2022/05/29 00:50:52;;;;;;;6.88;3.65;;;;;;;;;;5016769;28;20045;-32
2022/05/29 00:53:19;;;;;;;9.70;3.78;;;;;;;;;;5048835;28;20041;-32
2022/05/29 00:55:49;;;;;;;8.43;3.53;;;;;;;;;;5038218;28;20507;-31
2022/05/29 00:58:16;;;;;;;6.25;3.47;;;;;;;;;;5044470;28;20065;-32
2022/05/29 01:00:42;;;;;;;12.45;4.50;;;;;;;;;;5049210;28;20063;-32
2022/05/29 01:03:08;;;;;;;11.88;4.03;;;;;;;;;;5051539;28;20049;-32
2022/05/29 01:05:38;;;;;;;5.07;3.35;;;;;;;;;;5050892;28;20037;-31
2022/05/29 01:08:09;;;;;;;10.50;3.88;;;;;;;;;;5052187;28;20041;-31
2022/05/29 01:10:53;;;;;;;8.23;3.70;;;;;;;;;;5047785;28;20037;-33
2022/05/29 01:13:19;;;;;;;;;;;;;;;;;;5034162;28;20048;-31
2022/05/29 01:15:51;;;;;;;8.98;3.90;;;;;;;;;;5037070;28;20329;-31
2022/05/29 01:18:42;;;;;;;8.93;3.33;;;;;;;;;;5047175;28;20469;-32
2022/05/29 01:21:21;;;;;;;10.52;4.53;;;;;;;;;;5036040;28;20040;-33
2022/05/29 01:23:58;;;;;;;8.82;3.80;;;;;;;;;;5034949;28;20542;-32
2022/05/29 01:26:33;;;;;;;10.23;4.15;;;;;;;;;;5048606;28;20124;-31
2022/05/29 01:29:01;;;;;;;9.73;4.13;;;;;;;;;;5035867;28;20041;-31
2022/05/29 01:31:27;;;;;;;13.13;3.60;;;;;;;;;;5051106;28;20372;-32
2022/05/29 01:34:02;;;;;;;8.65;3.97;;;;;;;;;;5050608;28;20130;-32
2022/05/29 01:36:39;;;;;;;10.90;3.65;;;;;;;;;;5023095;28;20037;-33
2022/05/29 01:39:26;;;;;;;10.25;3.88;;;;;;;;;;5040228;28;20080;-32
2022/05/29 01:41:59;;;;;;;9.25;3.40;;;;;;;;;;5023653;28;20092;-31
2022/05/29 01:44:34;;;;;;;9.30;4.47;;;;;;;;;;5040049;28;20123;-32
2022/05/29 01:47:06;;;;;;;11.95;4.85;;;;;;;;;;5046644;28;20130;-29
2022/05/29 01:49:38;;;;;;;9.80;4.47;;;;;;;;;;5052545;28;20055;-29
2022/05/29 01:52:12;;;;;;;9.98;4.75;;;;;;;;;;5051950;28;20048;-33
2022/05/29 01:54:42;;;;;;;12.93;4.82;;;;;;;;;;5052425;28;20041;-29
2022/05/29 01:57:08;;;;;;;10.57;4.03;;;;;;;;;;5034601;28;20087;-28
2022/05/29 01:59:39;;;;;;;9.02;4.10;;;;;;;;;;5052121;28;20069;-29
2022/05/29 02:02:07;;;;;;;11.25;5.03;;;;;;;;;;5034561;28;20040;-29
2022/05/29 02:04:35;;;;;;;10.30;4.68;;;;;;;;;;5052090;28;20127;-30
2022/05/29 02:09:54;;;;;;;9.60;4.32;;;;;;;;;;5052128;28;20048;-31
2022/05/29 02:12:22;;;;;;;7.95;4.30;;;;;;;;;;5052057;28;20041;-30
2022/05/29 02:14:54;;;;;;;10.00;4.03;;;;;;;;;;5052047;28;20086;-30
2022/05/29 02:17:22;;;;;;;8.95;4.07;;;;;;;;;;5051643;28;20087;-31
2022/05/29 02:19:53;;;;;;;9.10;4.40;;;;;;;;;;5051771;28;20090;-30
2022/05/29 02:22:23;;;;;;;11.77;4.65;;;;;;;;;;5049788;28;20429;-31
2022/05/29 02:24:52;;;;;;;9.25;4.43;;;;;;;;;;5034350;28;20408;-32
2022/05/29 02:27:33;;;;;;;10.25;4.68;;;;;;;;;;5041872;28;20052;-32
2022/05/29 02:29:59;;;;;;;11.70;4.18;;;;;;;;;;5039633;28;20045;-31
2022/05/29 02:32:40;;;;;;;12.52;4.18;;;;;;;;;;5045469;28;20040;-32
2022/05/29 02:35:18;;;;;;;13.45;4.90;;;;;;;;;;5031155;28;20033;-32
2022/05/29 02:37:56;;;;;;;11.25;3.80;;;;;;;;;;5049029;28;20037;-32
2022/05/29 02:40:26;;;;;;;12.38;4.20;;;;;;;;;;5039833;28;20056;-31
2022/05/29 02:43:01;;;;;;;13.27;5.05;;;;;;;;;;5041224;28;20045;-33
2022/05/29 02:45:36;;;;;;;10.88;4.72;;;;;;;;;;5032492;28;20469;-33
2022/05/29 02:48:08;;;;;;;10.07;4.35;;;;;;;;;;5044811;28;20417;-31
2022/05/29 02:50:37;;;;;;;10.50;4.55;;;;;;;;;;5034561;28;20490;-33
2022/05/29 02:53:08;;;;;;;11.65;4.97;;;;;;;;;;5034992;28;20502;-33
2022/05/29 02:55:35;;;;;;;9.73;4.10;;;;;;;;;;5042371;28;20033;-32
2022/05/29 02:58:02;;;;;;;9.25;4.25;;;;;;;;;;5045894;28;20505;-31
2022/05/29 03:00:32;;;;;;;13.23;4.88;;;;;;;;;;5048291;28;20126;-33
2022/05/29 03:03:30;;;;;;;7.60;4.05;;;;;;;;;;5044667;28;20124;-32
2022/05/29 03:06:09;;;;;;;10.45;4.57;;;;;;;;;;4984710;28;20049;-31
2022/05/29 03:08:35;;;;;;;13.48;5.03;;;;;;;;;;5039285;28;20042;-32
2022/05/29 03:11:02;;;;;;;12.73;4.88;;;;;;;;;;5049310;28;20037;-33
2022/05/29 03:13:41;;;;;;;9.40;4.00;;;;;;;;;;5043358;28;20046;-32
2022/05/29 03:16:22;;;;;;;9.70;4.30;;;;;;;;;;5038600;28;20172;-31
2022/05/29 03:19:21;;;;;;;12.07;4.60;;;;;;;;;;5038937;28;20037;-32
2022/05/29 03:21:57;;;;;;;12.35;4.55;;;;;;;;;;4992649;28;20049;-31
2022/05/29 03:24:36;;;;;;;13.88;4.78;;;;;;;;;;5035887;28;20045;-33
2022/05/29 03:27:20;;;;;;;14.35;4.38;;;;;;;;;;5045728;28;20055;-32
2022/05/29 03:29:54;;;;;;;8.35;3.85;;;;;;;;;;5042187;28;20451;-32
2022/05/29 03:32:20;;;;;;;;;;;;;;;;;;5041822;28;20040;-31
2022/05/29 03:34:46;;;;;;;10.65;4.43;;;;;;;;;;5049086;28;20366;-32
2022/05/29 03:37:12;;;;;;;8.27;4.10;;;;;;;;;;5041245;28;20121;-31
2022/05/29 03:39:38;;;;;;;10.77;5.75;;;;;;;;;;5049278;28;20453;-32
2022/05/29 03:42:05;;;;;;;9.82;4.88;;;;;;;;;;5048862;28;20037;-33
2022/05/29 03:44:32;;;;;;;10.98;4.57;;;;;;;;;;5041443;28;20491;-32
2022/05/29 03:46:58;;;;;;;8.02;4.18;;;;;;;;;;5048610;28;20037;-31
2022/05/29 03:49:24;;;;;;;11.77;4.38;;;;;;;;;;5046679;28;20080;-31
2022/05/29 03:51:50;;;;;;;7.65;3.70;;;;;;;;;;5045043;28;20037;-35
2022/05/29 03:54:17;;;;;;;8.57;4.50;;;;;;;;;;5040801;28;20090;-32
2022/05/29 03:56:43;;;;;;;11.07;4.05;;;;;;;;;;5047274;28;20041;-32
2022/05/29 03:59:09;;;;;;;10.50;3.97;;;;;;;;;;5047815;28;20033;-33
2022/05/29 04:01:36;;;;;;;11.60;4.78;;;;;;;;;;5047925;28;20029;-34
2022/05/29 04:04:02;;;;;;;13.15;4.85;;;;;;;;;;5038611;28;20145;-31
2022/05/29 04:06:30;;;;;;;10.18;4.00;;;;;;;;;;5046537;28;20041;-33
2022/05/29 04:14:28;;;;;;;9.75;3.92;;;;;;;;;;5039865;28;20514;-31
2022/05/29 04:16:54;;;;;;;8.77;3.90;;;;;;;;;;5039658;28;20125;-32
2022/05/29 04:19:20;;;;;;;8.60;4.18;;;;;;;;;;5032405;28;20048;-32
2022/05/29 04:21:48;;;;;;;8.77;3.63;;;;;;;;;;5047028;28;20045;-31
2022/05/29 04:24:16;;;;;;;9.55;3.92;;;;;;;;;;5036070;28;20046;-32
2022/05/29 04:26:42;;;;;;;9.70;3.30;;;;;;;;;;5045693;28;20577;-32
2022/05/29 04:29:08;;;;;;;7.35;3.70;;;;;;;;;;5034574;28;20125;-32
2022/05/29 04:31:34;;;;;;;7.07;3.72;;;;;;;;;;5042497;28;20056;-32
2022/05/29 04:34:00;;;;;;;12.68;4.07;;;;;;;;;;5044123;28;20048;-32
2022/05/29 04:36:26;;;;;;;11.77;3.72;;;;;;;;;;5042787;28;20045;-31
2022/05/29 04:38:53;;;;;;;10.07;3.47;;;;;;;;;;5046630;28;20372;-32
2022/05/29 04:41:25;;;;;;;8.35;3.50;;;;;;;;;;5043025;28;20494;-32
2022/05/29 04:43:52;;;;;;;7.88;3.40;;;;;;;;;;5043832;28;20044;-32
2022/05/29 04:46:18;;;;;;;11.05;3.60;;;;;;;;;;5044725;28;20399;-33
2022/05/29 04:48:44;;;;;;;7.43;3.40;;;;;;;;;;5037605;28;20540;-33
2022/05/29 04:51:10;;;;;;;17.80;4.30;;;;;;;;;;5037449;28;20509;-31
2022/05/29 04:53:37;;;;;;;9.25;3.95;;;;;;;;;;5048804;28;20033;-32
2022/05/29 04:56:04;;;;;;;5.72;3.30;;;;;;;;;;5043665;28;20052;-32
2022/05/29 04:58:30;;;;;;;10.07;3.97;;;;;;;;;;5044607;28;20519;-31
2022/05/29 05:01:00;;;;;;;13.20;4.03;;;;;;;;;;5050966;28;20487;-31
2022/05/29 05:03:26;;;;;;;8.75;3.58;;;;;;;;;;5046071;28;20049;-32
2022/05/29 05:05:52;;;;;;;7.45;3.45;;;;;;;;;;5051010;28;20491;-33
2022/05/29 05:08:18;;;;;;;7.38;3.60;;;;;;;;;;5043673;28;20037;-32
2022/05/29 05:10:45;;;;;;;12.95;4.10;;;;;;;;;;5045183;28;20044;-31
2022/05/29 05:13:11;;;;;;;7.47;3.75;;;;;;;;;;5047410;28;20465;-31
2022/05/29 05:15:37;;;;;;;10.95;3.80;;;;;;;;;;5033881;28;20044;-32
2022/05/29 05:18:03;;;;;;;8.00;3.50;;;;;;;;;;5047537;28;20125;-33
2022/05/29 05:20:30;;;;;;;10.32;3.55;;;;;;;;;;5049135;28;20553;-33
2022/05/29 05:22:57;;;;;;;7.32;3.22;;;;;;;;;;5029899;28;20505;-32
2022/05/29 05:25:23;;;;;;;6.70;3.20;;;;;;;;;;5048256;28;20119;-32
2022/05/29 05:27:50;;;;;;;8.65;3.42;;;;;;;;;;5050282;28;20128;-32
2022/05/29 05:30:16;;;;;;;6.50;3.40;;;;;;;;;;5052073;28;20036;-32
2022/05/29 05:32:42;;;;;;;8.70;3.40;;;;;;;;;;5047130;28;20522;-34
2022/05/29 05:35:08;;;;;;;6.40;3.45;;;;;;;;;;5035657;28;20077;-32
2022/05/29 05:37:35;;;;;;;7.78;3.30;;;;;;;;;;5038287;28;20127;-33
2022/05/29 05:40:03;;;;;;;11.63;3.35;;;;;;;;;;5038921;28;20037;-32
2022/05/29 05:42:29;;;;;;;9.85;2.85;;;;;;;;;;5037611;28;20037;-32
2022/05/29 05:44:55;;;;;;;10.20;3.15;;;;;;;;;;5039498;28;20040;-32
2022/05/29 05:47:22;;;;;;;7.40;3.20;;;;;;;;;;5045972;28;20394;-33
2022/05/29 05:49:49;;;;;;;9.82;3.33;;;;;;;;;;5045740;28;20044;-31
2022/05/29 05:52:16;;;;;;;9.65;3.40;;;;;;;;;;5045893;28;20036;-33
2022/05/29 05:54:42;;;;;;;8.80;2.70;;;;;;;;;;5042240;28;20098;-32
2022/05/29 05:57:08;;;;;;;11.27;3.03;;;;;;;;;;5042923;28;20045;-33
2022/05/29 05:59:35;;;;;;;7.20;2.40;;;;;;;;;;5038098;28;20037;-34
2022/05/29 06:02:01;;;;;;;8.57;3.40;;;;;;;;;;5043765;28;20041;-32
2022/05/29 06:04:27;;;;;;;10.40;2.78;;;;;;;;;;5025193;28;20067;-32
2022/05/29 06:06:54;;;;;;;7.75;2.35;;;;;;;;;;5042151;28;20049;-32
2022/05/29 06:09:22;;;;;;;8.38;2.55;;;;;;;;;;5045009;28;20072;-31
2022/05/29 06:11:48;;;;;;;8.32;2.58;;;;;;;;;;5044142;28;20037;-35
2022/05/29 06:14:14;;;;;;;11.13;3.25;;;;;;;;;;5043997;28;20059;-34
2022/05/29 06:16:40;;;;;;;7.22;2.90;;;;;;;;;;5043660;28;20034;-31
2022/05/29 06:19:07;;;;;;;9.85;2.92;;;;;;;;;;5040288;28;20044;-34
2022/05/29 06:21:34;;;;;;;10.13;3.33;;;;;;;;;;5039314;28;20048;-32
2022/05/29 06:24:00;;;;;;;10.15;4.25;;;;;;;;;;5043005;28;20095;-34
2022/05/29 06:26:26;;;;;;;9.50;4.30;;;;;;;;;;5046860;28;20057;-32
2022/05/29 06:28:52;;;;;;;9.23;3.08;;;;;;;;;;5040126;28;20044;-32
2022/05/29 06:31:18;;;;;;;8.55;2.92;;;;;;;;;;5037825;28;20091;-33
2022/05/29 06:33:44;;;;;;;8.15;2.50;;;;;;;;;;5037289;28;20441;-32
2022/05/29 06:36:12;;;;;;;8.95;3.28;;;;;;;;;;5042356;28;20426;-32
2022/05/29 06:38:38;;;;;;;8.68;3.08;;;;;;;;;;5041823;28;20124;-33
2022/05/29 06:41:05;;;;;;;9.68;2.88;;;;;;;;;;5046501;28;20051;-32
2022/05/29 06:43:31;;;;;;;13.50;7.70;;;;;;;;;;5045922;28;20098;-32
2022/05/29 06:45:58;;;;;;;9.88;4.82;;;;;;;;;;5033326;28;20488;-33
2022/05/29 06:48:24;;;;;;;10.65;5.35;;;;;;;;;;5039394;28;20041;-34
2022/05/29 06:50:50;;;;;;;11.45;3.67;;;;;;;;;;5035728;28;20450;-31
2022/05/29 06:53:16;;;;;;;6.70;2.63;;;;;;;;;;5019188;28;20045;-32
2022/05/29 06:55:50;;;;;;;10.23;3.22;;;;;;;;;;5036314;28;20135;-31
2022/05/29 06:58:16;;;;;;;11.45;3.15;;;;;;;;;;5045132;28;20037;-33
2022/05/29 07:08:57;;;;;;;10.52;3.03;;;;;;;;;;5043109;28;20052;-34
2022/05/29 07:11:25;;;;;;;7.75;2.85;;;;;;;;;;5040443;28;20033;-33
2022/05/29 07:13:51;;;;;;;8.32;2.50;;;;;;;;;;5040803;28;20046;-33
2022/05/29 07:16:17;;;;;;;7.72;2.53;;;;;;;;;;5039412;28;20505;-33
2022/05/29 07:18:43;;;;;;;10.52;2.63;;;;;;;;;;5042374;28;20525;-33
2022/05/29 07:21:10;;;;;;;8.80;2.45;;;;;;;;;;5037319;28;20038;-32
2022/05/29 07:23:36;;;;;;;5.80;2.45;;;;;;;;;;5039613;28;20123;-32
2022/05/29 07:26:03;;;;;;;9.23;2.60;;;;;;;;;;5035630;28;20053;-32
2022/05/29 07:28:29;;;;;;;8.32;2.97;;;;;;;;;;5043140;28;20087;-33
2022/05/29 07:30:55;;;;;;;9.93;2.30;;;;;;;;;;5046625;28;20048;-33
2022/05/29 07:33:21;;;;;;;7.88;3.08;;;;;;;;;;5048597;28;20045;-33
2022/05/29 07:35:47;;;;;;;7.22;2.40;;;;;;;;;;5043400;28;20044;-32
2022/05/29 07:38:13;;;;;;;8.77;2.58;;;;;;;;;;5040162;28;20046;-32
2022/05/29 07:40:39;;;;;;;9.40;2.70;;;;;;;;;;5042998;28;20479;-32
2022/05/29 07:43:24;;;;;;;14.07;3.90;;;;;;;;;;5039434;28;20037;-32
2022/05/29 07:45:52;;;;;;;10.93;3.00;;;;;;;;;;5036010;28;20045;-33
2022/05/29 07:48:19;;;;;;;10.70;2.75;;;;;;;;;;5044277;28;20506;-33
2022/05/29 07:50:45;;;;;;;9.10;2.90;;;;;;;;;;5049156;28;20049;-31
2022/05/29 07:53:11;;;;;;;9.60;3.35;;;;;;;;;;5041429;28;20389;-32
2022/05/29 07:55:38;;;;;;;9.55;3.05;;;;;;;;;;5040197;28;20108;-32
2022/05/29 07:58:07;;;;;;;11.25;2.70;;;;;;;;;;5044881;28;20175;-32
2022/05/29 08:00:34;;;;;;;13.38;3.38;;;;;;;;;;5045193;28;20068;-31
2022/05/29 08:03:01;;;;;;;9.48;2.97;;;;;;;;;;5048569;28;20576;-33
2022/05/29 08:05:31;;;;;;;12.63;3.20;;;;;;;;;;5042386;28;20037;-32
2022/05/29 08:07:57;;;;;;;9.60;2.90;;;;;;;;;;5043785;28;20560;-32
2022/05/29 08:10:24;;;;;;;6.97;2.88;;;;;;;;;;5050544;28;20465;-33
2022/05/29 08:12:50;;;;;;;11.90;2.45;;;;;;;;;;5049881;28;20136;-33
2022/05/29 08:15:16;;;;;;;13.35;2.90;;;;;;;;;;5042956;28;20041;-32
2022/05/29 08:17:42;;;;;;;11.32;2.70;;;;;;;;;;5047643;28;20312;-31
2022/05/29 08:20:09;;;;;;;11.43;2.40;;;;;;;;;;5052445;28;20397;-32
2022/05/29 08:22:35;;;;;;;8.68;2.53;;;;;;;;;;5046283;28;20047;-33
2022/05/29 08:30:37;;;;;;;9.30;2.45;;;;;;;;;;5037871;28;20073;-33
2022/05/29 08:33:07;;;;;;;8.70;2.28;;;;;;;;;;5040805;28;20049;-32
2022/05/29 08:35:34;;;;;;;7.82;2.47;;;;;;;;;;5048520;28;20072;-33
2022/05/29 08:38:01;;;;;;;10.85;2.20;;;;;;;;;;5052795;28;20037;-32
2022/05/29 08:40:28;;;;;;;5.28;1.85;;;;;;;;;;5048959;28;20068;-32
2022/05/29 08:42:54;;;;;;;5.80;2.13;;;;;;;;;;5041544;28;20550;-31
2022/05/29 08:45:20;;;;;;;4.47;1.60;;;;;;;;;;5044877;28;20107;-33
2022/05/29 08:47:46;;;;;;;8.65;2.05;;;;;;;;;;5034713;28;20270;-31
2022/05/29 08:50:32;;;;;;;4.55;1.33;;;;;;;;;;5043119;28;20133;-33
2022/05/29 08:53:27;;;;;;;4.15;1.73;;;;;;;;;;5043206;28;20491;-31
2022/05/29 08:55:57;;;;;;;4.35;1.25;;;;;;;;;;5033603;28;20091;-32
2022/05/29 08:58:23;;;;;;;4.90;1.40;;;;;;;;;;5025777;28;20116;-33
2022/05/29 09:00:58;;;;;;;7.50;1.67;;;;;;;;;;5052372;28;20055;-32
2022/05/29 09:03:56;;;;;;;4.70;1.33;;;;;;;;;;5043134;28;20072;-34
2022/05/29 09:06:29;;;;;;;4.10;1.38;;;;;;;;;;4998433;28;20045;-34
2022/05/29 09:09:03;;;;;;;5.55;1.38;;;;;;;;;;5043392;28;20336;-32
2022/05/29 09:11:32;;;;;;;4.63;1.40;;;;;;;;;;5040013;28;20304;-32
2022/05/29 09:14:08;;;;;;;4.60;1.83;;;;;;;;;;5036630;28;20041;-32
2022/05/29 09:16:39;;;;;;;6.53;1.38;;;;;;;;;;5043860;28;20502;-32
2022/05/29 09:19:06;;;;;;;6.82;1.90;;;;;;;;;;5039466;28;20570;-31
2022/05/29 09:21:39;;;;;;;5.47;1.60;;;;;;;;;;5038195;28;20036;-32
2022/05/29 09:24:22;;;;;;;7.43;2.10;;;;;;;;;;5037349;28;20040;-32
2022/05/29 09:26:48;;;;;;;9.40;2.17;;;;;;;;;;5040812;28;20076;-32
2022/05/29 09:29:14;;;;;;;3.03;1.20;;;;;;;;;;5040099;28;20487;-32
2022/05/29 09:31:40;;;;;;;6.30;1.80;;;;;;;;;;5046789;28;20576;-33
2022/05/29 09:34:06;;;;;;;5.50;1.60;;;;;;;;;;5046472;28;20080;-32
2022/05/29 09:36:42;;;;;;;6.22;1.98;;;;;;;;;;5041320;28;20109;-31
2022/05/29 09:39:11;;;;;;;5.15;1.40;;;;;;;;;;5043240;28;20499;-33
2022/05/29 09:41:40;;;;;;;2.45;1.17;;;;;;;;;;5028996;28;20386;-32
2022/05/29 09:44:09;;;;;;;4.05;1.48;;;;;;;;;;5025642;28;20045;-32
2022/05/29 09:46:37;;;;;;;3.08;0.95;;;;;;;;;;5045295;28;20040;-34
2022/05/29 09:51:56;;;;;;;4.97;1.58;;;;;;;;;;5040246;28;20048;-33
2022/05/29 09:54:43;;;;;;;3.22;1.15;;;;;;;;;;5040884;28;20048;-33
2022/05/29 09:57:12;;;;;;;4.53;1.10;;;;;;;;;;5041311;28;20116;-33
2022/05/29 09:59:44;;;;;;;6.70;1.60;;;;;;;;;;5036180;28;20065;-34
2022/05/29 10:02:21;;;;;;;6.10;1.30;;;;;;;;;;5041957;28;20511;-32
2022/05/29 10:04:51;;;;;;;4.10;1.50;;;;;;;;;;5046736;28;20091;-32
2022/05/29 10:07:28;;;;;;;3.28;1.27;;;;;;;;;;5041789;28;20041;-34
2022/05/29 10:09:56;;;;;;;8.15;1.65;;;;;;;;;;5033603;28;20574;-34
2022/05/29 10:12:26;;;;;;;4.57;1.40;;;;;;;;;;5045273;28;20026;-33
2022/05/29 10:14:52;;;;;;;5.63;1.27;;;;;;;;;;5037331;28;20305;-33
2022/05/29 10:17:30;;;;;;;4.63;1.73;;;;;;;;;;5041417;28;20037;-32
2022/05/29 10:19:56;;;;;;;3.72;1.55;;;;;;;;;;5043570;28;20036;-32
2022/05/29 10:22:28;;;;;;;4.13;1.40;;;;;;;;;;5044019;28;20076;-33
2022/05/29 10:24:54;;;;;;;5.65;1.45;;;;;;;;;;5046429;28;20032;-31
2022/05/29 10:27:23;;;;;;;4.28;1.48;;;;;;;;;;5051188;28;20475;-33
2022/05/29 10:29:58;;;;;;;4.28;1.25;;;;;;;;;;5047392;28;20037;-33
2022/05/29 10:32:35;;;;;;;5.75;1.48;;;;;;;;;;5039245;28;20077;-33
2022/05/29 10:35:08;;;;;;;3.47;1.17;;;;;;;;;;5043841;28;20042;-33
2022/05/29 10:37:38;;;;;;;6.00;1.52;;;;;;;;;;5046939;28;20076;-34
2022/05/29 10:40:16;;;;;;;4.53;1.55;;;;;;;;;;5037296;28;20052;-32
2022/05/29 10:42:44;;;;;;;4.93;1.27;;;;;;;;;;5036128;28;20485;-32
2022/05/29 10:45:21;;;;;;;6.78;1.42;;;;;;;;;;5046177;28;20059;-33
2022/05/29 10:48:03;;;;;;;4.05;1.20;;;;;;;;;;5032049;28;20048;-34
2022/05/29 10:50:33;;;;;;;3.95;1.38;;;;;;;;;;5034777;28;20057;-32
2022/05/29 10:53:11;;;;;;;5.07;1.30;;;;;;;;;;5046793;28;20033;-34
2022/05/29 10:55:56;;;;;;;5.20;1.52;;;;;;;;;;5038945;28;20036;-32
2022/05/29 10:58:42;;;;;;;2.25;1.05;;;;;;;;;;5045589;28;20440;-33
2022/05/29 11:03:17;;;;;;;3.47;1.00;;;;;;;;;;5038203;28;20052;-33
2022/05/29 11:04:13;;;;;;;5.03;1.33;;;;;;;;;;5030028;28;20047;-33
2022/05/29 11:07:05;;;;;;;5.30;1.50;;;;;;;;;;5034100;28;20384;-32
2022/05/29 11:09:31;;;;;;;3.13;1.20;;;;;;;;;;5049437;28;20059;-31
2022/05/29 11:12:04;;;;;;;5.43;1.77;;;;;;;;;;5051015;28;20045;-32
2022/05/29 11:14:44;;;;;;;3.15;1.30;;;;;;;;;;5051448;28;20041;-30
2022/05/29 11:17:25;;;;;;;3.30;1.30;;;;;;;;;;5050852;28;20036;-30
2022/05/29 11:20:10;;;;;;;5.40;1.50;;;;;;;;;;5050314;28;20437;-30
2022/05/29 11:22:38;;;;;;;2.50;1.27;;;;;;;;;;5052016;28;20387;-31
2022/05/29 11:25:34;;;;;;;5.18;1.40;;;;;;;;;;5051871;28;20041;-30
2022/05/29 11:28:04;;;;;;;2.78;1.30;;;;;;;;;;5033753;28;20049;-31
2022/05/29 11:30:38;;;;;;;4.55;1.33;;;;;;;;;;5051154;28;20068;-30
2022/05/29 11:33:13;;;;;;;3.35;1.10;;;;;;;;;;5051255;28;20071;-30
2022/05/29 11:35:45;;;;;;;6.95;2.30;;;;;;;;;;5051223;28;20040;-30
2022/05/29 11:38:23;;;;;;;2.35;0.93;;;;;;;;;;5051656;28;20502;-30
2022/05/29 11:41:02;;;;;;;3.72;1.35;;;;;;;;;;5052107;28;20037;-31
2022/05/29 11:43:32;;;;;;;4.97;1.38;;;;;;;;;;5052065;28;20045;-30
2022/05/29 11:51:41;;;;;;;3.88;1.20;;;;;;;;;;5050751;28;20140;-29
2022/05/29 11:54:27;;;;;;;3.35;1.40;;;;;;;;;;5050830;28;20045;-29
2022/05/29 11:56:53;;;;;;;5.22;1.40;;;;;;;;;;5010516;28;20507;-31
2022/05/29 11:59:22;;;;;;;2.75;1.25;;;;;;;;;;5048525;28;20051;-30
2022/05/29 12:01:50;;;;;;;4.22;1.70;;;;;;;;;;5045121;28;20060;-29
2022/05/29 12:04:16;;;;;;;3.90;1.48;;;;;;;;;;5047726;28;20037;-33
2022/05/29 12:06:43;;;;;;;13.65;5.07;;;;;;;;;;5036653;28;20372;-29
2022/05/29 12:09:27;;;;;;;3.28;1.80;;;;;;;;;;5043432;28;20499;-29
2022/05/29 12:12:00;;;;;;;5.15;1.50;;;;;;;;;;5030596;28;20056;-30
2022/05/29 12:14:34;;;;;;;6.67;2.70;;;;;;;;;;5046460;28;20130;-29
2022/05/29 12:17:24;;;;;;;25.55;10.82;;;;;;;;;;5050538;28;20366;-29
2022/05/29 12:19:54;;;;;;;5.32;2.00;;;;;;;;;;5013929;28;20183;-30
2022/05/29 12:22:23;;;;;;;5.32;1.58;;;;;;;;;;5048830;28;20090;-29
2022/05/29 12:24:50;;;;;;;5.10;1.67;;;;;;;;;;5047787;28;20068;-29
2022/05/29 12:27:19;;;;;;;6.28;1.75;;;;;;;;;;5054532;28;20553;-29
2022/05/29 12:29:54;;;;;;;7.07;1.80;;;;;;;;;;5054564;28;20437;-29
2022/05/29 12:32:25;;;;;;;6.20;2.17;;;;;;;;;;5048878;28;20084;-29
2022/05/29 12:34:56;;;;;;;4.18;1.42;;;;;;;;;;5054502;28;20041;-29
2022/05/29 12:37:34;;;;;;;4.63;1.80;;;;;;;;;;5053966;28;20037;-30
2022/05/29 12:40:30;;;;;;;6.45;1.88;;;;;;;;;;5046369;28;20391;-29
2022/05/29 12:42:59;;;;;;;3.53;1.35;;;;;;;;;;5018972;28;20057;-29
2022/05/29 12:45:25;;;;;;;5.25;1.33;;;;;;;;;;5053491;28;20041;-30
2022/05/29 12:48:00;;;;;;;3.13;1.48;;;;;;;;;;5043992;28;20051;-30
2022/05/29 12:50:38;;;;;;;5.05;1.60;;;;;;;;;;5035937;28;20089;-29
2022/05/29 12:53:22;;;;;;;7.63;2.38;;;;;;;;;;5033779;28;20136;-29
2022/05/29 12:56:07;;;;;;;6.65;1.40;;;;;;;;;;5045222;28;20044;-30
2022/05/29 12:58:48;;;;;;;5.63;2.03;;;;;;;;;;5052590;28;20940;-30
2022/05/29 13:01:30;;;;;;;7.95;2.35;;;;;;;;;;5052299;28;20045;-29
2022/05/29 13:04:06;;;;;;;6.55;2.20;;;;;;;;;;5047009;28;20041;-30
2022/05/29 13:06:55;;;;;;;9.25;3.08;;;;;;;;;;5044915;28;20048;-29
2022/05/29 13:09:24;;;;;;;5.85;2.33;;;;;;;;;;5007385;28;20415;-30
2022/05/29 13:11:52;;;;;;;7.95;1.92;;;;;;;;;;5050961;28;20103;-29
2022/05/29 13:14:20;;;;;;;5.53;1.80;;;;;;;;;;5052698;28;20041;-30
2022/05/29 13:16:46;;;;;;;5.82;2.08;;;;;;;;;;5050906;28;20065;-29
2022/05/29 13:19:14;;;;;;;8.15;2.22;;;;;;;;;;5035988;28;20044;-30
2022/05/29 13:21:59;;;;;;;3.78;1.75;;;;;;;;;;5048392;28;20042;-30
2022/05/29 13:24:27;;;;;;;4.50;1.98;;;;;;;;;;5036568;28;20152;-29
2022/05/29 13:27:17;;;;;;;4.03;1.60;;;;;;;;;;5049833;28;20033;-30
2022/05/29 13:29:43;;;;;;;4.15;1.80;;;;;;;;;;5032664;28;20049;-31
2022/05/29 13:32:15;;;;;;;4.93;1.73;;;;;;;;;;5033969;28;20084;-32
2022/05/29 13:34:41;;;;;;;6.15;1.90;;;;;;;;;;5036978;28;20391;-31
2022/05/29 13:37:09;;;;;;;6.72;1.70;;;;;;;;;;5038806;28;20036;-31
2022/05/29 13:39:52;;;;;;;2.80;1.50;;;;;;;;;;5046480;28;20513;-33
2022/05/29 13:42:30;;;;;;;5.23;1.53;;;;;;;;;;5046467;28;20049;-33
2022/05/29 13:44:56;;;;;;;6.38;1.98;;;;;;;;;;5039933;28;20287;-32
2022/05/29 13:47:26;;;;;;;6.25;1.60;;;;;;;;;;5044964;28;20251;-32
2022/05/29 13:50:11;;;;;;;5.38;1.40;;;;;;;;;;5042226;28;20041;-31
2022/05/29 13:52:42;;;;;;;7.30;1.83;;;;;;;;;;5041853;28;20045;-34
2022/05/29 13:55:10;;;;;;;6.10;1.92;;;;;;;;;;5045425;28;20486;-31
2022/05/29 14:06:26;;;;;;;8.13;1.80;;;;;;;;;;5042448;28;20041;-32
2022/05/29 14:08:54;;;;;;;6.63;2.17;;;;;;;;;;5038319;28;20136;-32
2022/05/29 14:11:20;;;;;;;7.60;1.95;;;;;;;;;;5047300;28;20132;-33
2022/05/29 14:13:51;;;;;;;5.60;1.40;;;;;;;;;;5030000;28;20384;-32
2022/05/29 14:16:29;;;;;;;6.25;2.22;;;;;;;;;;5050797;28;20475;-33
2022/05/29 14:19:14;;;;;;;6.05;1.58;;;;;;;;;;5051475;28;20044;-31
2022/05/29 14:21:41;;;;;;;3.85;1.73;;;;;;;;;;5041654;28;20762;-32
2022/05/29 14:24:35;;;;;;;6.55;1.88;;;;;;;;;;5039207;28;20041;-32
2022/05/29 14:27:02;;;;;;;;;;;;;;;;;;5048249;28;20492;-32
2022/05/29 14:29:37;;;;;;;4.70;1.70;;;;;;;;;;5046922;28;20295;-32
2022/05/29 14:32:03;;;;;;;6.90;1.60;;;;;;;;;;5040527;28;20045;-32
2022/05/29 14:34:49;;;;;;;6.57;1.50;;;;;;;;;;5037916;28;20187;-32
2022/05/29 14:37:18;;;;;;;10.50;1.98;;;;;;;;;;5029005;28;20033;-32
2022/05/29 14:39:57;;;;;;;6.35;1.83;;;;;;;;;;5045737;28;20145;-31
2022/05/29 14:42:26;;;;;;;6.80;1.83;;;;;;;;;;5043450;28;20036;-31
2022/05/29 14:44:59;;;;;;;4.18;1.50;;;;;;;;;;5043110;28;20048;-31
2022/05/29 14:47:34;;;;;;;6.70;1.80;;;;;;;;;;5034707;28;20040;-32
2022/05/29 14:50:03;;;;;;;6.15;2.22;;;;;;;;;;5043181;28;20547;-32
2022/05/29 14:53:01;;;;;;;12.45;6.18;;;;;;;;;;5033253;28;20029;-32
2022/05/29 14:55:42;;;;;;;10.90;4.10;;;;;;;;;;5048605;28;20040;-33
2022/05/29 14:58:12;;;;;;;7.57;2.30;;;;;;;;;;5037692;28;20033;-31
2022/05/29 15:00:39;;;;;;;7.90;2.10;;;;;;;;;;5039111;28;20037;-31
2022/05/29 15:03:11;;;;;;;5.85;2.28;;;;;;;;;;5032210;28;20048;-33
2022/05/29 15:05:38;;;;;;;4.45;1.90;;;;;;;;;;5047692;28;20045;-33
2022/05/29 15:10:55;;;;;;;5.80;2.40;;;;;;;;;;5038266;28;20049;-32
2022/05/29 15:13:28;;;;;;;5.53;2.10;;;;;;;;;;5033830;28;20045;-33
2022/05/29 15:15:55;;;;;;;6.20;2.22;;;;;;;;;;5042344;28;20048;-34
2022/05/29 15:18:24;;;;;;;7.03;2.55;;;;;;;;;;5043485;28;20406;-31
2022/05/29 15:26:23;;;;;;;6.22;1.95;;;;;;;;;;5045583;28;20038;-31
2022/05/29 15:28:50;;;;;;;6.60;1.75;;;;;;;;;;5045451;28;20410;-31
2022/05/29 15:31:21;;;;;;;3.55;1.73;;;;;;;;;;5048557;28;20037;-31
2022/05/29 15:33:53;;;;;;;6.47;1.77;;;;;;;;;;5043990;28;20570;-32
2022/05/29 15:36:29;;;;;;;12.18;1.92;;;;;;;;;;5043392;28;20040;-31
2022/05/29 15:39:02;;;;;;;7.28;2.10;;;;;;;;;;5037875;28;20065;-32
2022/05/29 15:41:37;;;;;;;7.72;2.10;;;;;;;;;;5042525;28;20490;-31
2022/05/29 15:44:30;;;;;;;5.47;2.20;;;;;;;;;;5046774;28;20533;-32
2022/05/29 15:47:11;;;;;;;6.50;1.77;;;;;;;;;;5008032;28;20059;-30
2022/05/29 15:49:56;;;;;;;6.60;1.60;;;;;;;;;;5042208;28;20041;-32
2022/05/29 15:52:41;;;;;;;5.90;1.67;;;;;;;;;;5044256;28;20407;-31